x

Buoy E01 - Central Maine Shelf (44032) Weather Station

12:04 - Tue 26th Sep 2017 All times are EDT. -4 hours from GMT.

  • Wind
    4mph, 7mph gusts
  • Sea Temp 58°f
  • Air Temp 60°f
  • Sea Pressure 1017.3mb
  • Buoy E01 - Central Maine Shelf
  • Buoy E01 - Central Maine Shelf

More Historic Weather Station data

Upgrade to MSW Pro to gain access to the past 30 days of data for over 8000 Wavebouys and Weather Stations around the globe.

Join

Comparision Forecast

View Surf forecast
   
mar. 09/26 12:04  -   -  4 7 mph 1017.3mb 58f 60f
lun. 09/25 11:04  -   -  2 2 mph 1017.3mb 58f 58f
9:04 5ft 11s  -  2 mph 1017.6mb 58f 59f
8:04 4.5ft 11s 2 2 mph 1017.6mb 58f 60f
7:04 6.5ft 16s 2 4 mph 1017.4mb 58f 60f
6:04 6ft 16s 4 4 mph 1017.1mb 59f 61f
5:04 4.5ft 11s 7 9 mph 1017.1mb 60f 62f
4:04 4.5ft 11s 4 4 mph 1017.4mb 59f 62f
3:04 4.5ft 16s 4 7 mph 1017.4mb 60f 61f
2:04 3ft 11s 7 7 mph 1017.9mb 59f 60f
1:04 3.5ft 11s 9 9 mph 1018.2mb 58f 62f
12:04 5ft 16s 4 4 mph 1018.4mb 57f 65f
11:04 3.5ft 11s 2 4 mph 1018.8mb 57f 64f
10:04 3.5ft 11s 2 2 mph 1018.9mb 58f 63f
9:04 3.5ft 11s 2 4 mph 1018.5mb 57f 62f
8:04 5ft 11s 2 4 mph 1017.9mb 57f 60f
7:04 5ft 11s 4 7 mph 1017.4mb 56f 58f
6:04 4.5ft 11s 2 4 mph 1017mb 56f 60f
5:04 3.5ft 11s 4 4 mph 1016.5mb 56f 60f
4:04 3.5ft 11s 2 4 mph 1016mb 57f 60f
3:04 5ft 16s 4 4 mph 1015.8mb 57f 59f
2:04 4.5ft 16s 7 9 mph 1016mb 57f 60f
1:04  -   -  7 7 mph 1016.3mb 57f 60f
12:04 4ft 11s 2 4 mph 1016.5mb 58f 60f
dim. 09/24 11:04 4.5ft 11s 4 7 mph 1016.4mb 58f 60f
10:04  -   -  2 4 mph 1016.5mb 57f 59f
9:04 4.5ft 11s  -  2 mph 1016.3mb 57f 60f
8:04 5.5ft 16s 4 4 mph 1016mb 56f 60f
7:04 4.5ft 11s 4 4 mph 1015.6mb 56f 60f
6:04 4.5ft 16s 7 7 mph 1015.2mb 57f 61f
5:04 4.5ft 16s 7 7 mph 1015.2mb 58f 62f
4:04 4ft 11s 7 9 mph 1014.9mb 60f 62f
3:04 4.5ft 16s 7 7 mph 1015.4mb 59f 64f
2:04 3.5ft 11s 4 7 mph 1015.6mb 59f 64f
1:04 3.5ft 8s 4 7 mph 1016mb 58f 64f
12:04 3.5ft 11s 2 4 mph 1016.5mb 56f 63f
11:04 3.5ft 11s 2 2 mph 1016.9mb 56f 62f
10:04  -   -  2 4 mph 1016.8mb 56f 60f
9:04 3.5ft 11s 2 2 mph 1017.2mb 55f 59f
8:04 3ft 8s 4 7 mph 1017.2mb 55f 58f
7:04 3.5ft 11s 2 4 mph 1016.9mb 56f 59f
6:04 4.5ft 11s 2 4 mph 1016.5mb 56f 59f
5:04 4ft 16s 2 4 mph 1016mb 56f 58f
4:04 4ft 11s 2 4 mph 1015.6mb 56f 58f
3:04 2.5ft 6s 2 4 mph 1015.3mb 56f 58f
2:04 3.5ft 8s 2 4 mph 1015.5mb 57f 59f
1:04 4.5ft 8s 4 4 mph 1015.8mb 56f 58f
12:04 4.5ft 8s 4 4 mph 1015.9mb 58f 59f
sam. 09/23 11:04 4.5ft 8s 4 4 mph 1016mb 58f 59f
10:04 4ft 8s 4 4 mph 1016mb 58f 58f
9:04 4.5ft 8s 4 4 mph 1015.7mb 58f 59f
8:04 4.5ft 11s 4 4 mph 1015.7mb 58f 59f
7:04 4.5ft 8s 2 4 mph 1015.1mb 58f 59f
6:04 4ft 11s 4 4 mph 1015.2mb 58f 60f
5:04 4.5ft 11s 4 7 mph 1015mb 58f 60f
4:04 4.5ft 8s 4 4 mph 1014.9mb 59f 60f
3:04 4.5ft 11s 4 7 mph 1015.2mb 59f 60f
2:04 4ft 8s 2 2 mph 1015.5mb 58f 62f
1:04 4.5ft 8s 2 4 mph 1016mb 58f 62f
12:04 5ft 8s 4 7 mph 1016mb 57f 59f
11:04 5ft 8s 4 4 mph 1016.6mb 56f 59f
10:04 6ft 8s 2 2 mph 1016.4mb 55f 58f
9:04 5ft 8s 7 7 mph 1016.6mb 55f 57f
8:04 6ft 11s 9 11 mph 1016.4mb 55f 56f
7:04 5.5ft 11s 7 7 mph 1016.2mb 55f 56f
6:04 6ft 8s 7 9 mph 1016mb 55f 56f
5:04 6ft 8s 7 9 mph 1015.7mb 56f 57f
4:04 6ft 11s 9 11 mph 1016mb 56f 58f
3:04 5ft 8s 9 11 mph 1016.2mb 56f 59f
2:04 6ft 11s 9 9 mph 1016.3mb 57f 58f
1:04 6ft 8s 11 16 mph 1016.4mb 57f 58f
12:04 6.5ft 11s 11 11 mph 1016.4mb 56f 59f
ven. 09/22 11:04 7.5ft 11s 13 16 mph 1016.9mb 57f 59f
10:04 8.5ft 11s 16 18 mph 1016.8mb 55f 59f
9:04 10ft 11s 11 13 mph 1017.1mb 55f 58f
8:04 7.5ft 11s 11 16 mph 1017.3mb 55f 58f
7:04 8.5ft 11s 16 18 mph 1016.9mb 55f 58f
6:04 8ft 11s 16 18 mph 1017mb 55f 58f
4:04 9ft 11s 13 16 mph 1017.1mb 55f 57f
3:04 10ft 11s 11 13 mph 1017.1mb 55f 58f
2:04 8ft 11s 16 20 mph 1017.1mb 55f 60f
1:04 8ft 11s 16 18 mph 1017.7mb 55f 58f
12:04 7.5ft 11s 20 22 mph 1017.9mb 55f 58f
11:04 8.5ft 8s 22 27 mph 1018.2mb 55f 57f
10:04 8ft 11s 22 27 mph 1018.4mb 55f 57f
9:04 8ft 11s 22 27 mph 1018.3mb 55f 56f
8:04 9ft 11s 22 25 mph 1018.1mb 55f 56f
7:04 9ft 11s 20 22 mph 1018.2mb 55f 56f
6:04 9ft 11s 20 25 mph 1017.8mb 56f 56f